createdAt,value
2019-03-22T00:01:16.783Z,16.18
2019-03-22T00:06:23.891Z,17.31
2019-03-22T00:11:31.043Z,16.71
2019-03-22T00:16:38.422Z,16.34
2019-03-22T00:21:45.531Z,16.43
2019-03-22T00:26:52.656Z,16.30
2019-03-22T00:31:59.772Z,16.12
2019-03-22T00:37:06.857Z,16.88
2019-03-22T00:42:13.992Z,17.10
2019-03-22T00:47:21.103Z,17.31
2019-03-22T00:52:28.251Z,17.37
2019-03-22T00:57:35.351Z,17.37
2019-03-22T01:02:42.480Z,17.56
2019-03-22T01:07:49.581Z,17.22
2019-03-22T01:12:56.714Z,16.92
2019-03-22T01:18:03.835Z,17.17
2019-03-22T01:23:10.944Z,16.70
2019-03-22T01:28:18.350Z,16.71
2019-03-22T01:33:25.468Z,16.16
2019-03-22T01:38:32.648Z,16.23
2019-03-22T01:43:39.759Z,16.27
2019-03-22T01:48:46.866Z,15.96
2019-03-22T01:53:53.990Z,16.48
2019-03-22T01:59:01.094Z,16.51
2019-03-22T02:04:08.206Z,16.35
2019-03-22T02:09:15.301Z,16.81
2019-03-22T02:14:22.745Z,16.53
2019-03-22T02:19:29.888Z,17.20
2019-03-22T02:24:37.013Z,17.37
2019-03-22T02:29:44.499Z,17.00
2019-03-22T02:34:50.799Z,16.78
2019-03-22T02:39:58.040Z,16.60
2019-03-22T02:45:05.133Z,16.40
2019-03-22T02:50:18.584Z,15.82
2019-03-22T02:55:19.110Z,16.26
2019-03-22T03:00:26.828Z,15.90
2019-03-22T03:05:34.041Z,15.70
2019-03-22T03:10:41.196Z,16.40
2019-03-22T03:15:48.308Z,16.31
2019-03-22T03:20:55.451Z,16.38
2019-03-22T03:26:02.568Z,16.00
2019-03-22T03:31:09.765Z,16.07
2019-03-22T03:36:16.916Z,15.33
2019-03-22T03:41:24.038Z,15.21
2019-03-22T03:46:31.178Z,14.96
2019-03-22T03:51:38.300Z,15.34
2019-03-22T03:56:45.415Z,15.80
2019-03-22T04:01:53.183Z,15.46
2019-03-22T04:07:00.307Z,15.20
2019-03-22T04:12:07.417Z,15.43
2019-03-22T04:17:14.539Z,15.14
2019-03-22T04:22:21.962Z,14.46
2019-03-22T04:27:29.088Z,15.09
2019-03-22T04:32:36.185Z,15.73
2019-03-22T04:37:43.298Z,15.99
2019-03-22T04:42:50.482Z,15.91
2019-03-22T04:47:57.619Z,15.67
2019-03-22T04:53:06.138Z,15.60
2019-03-22T04:58:14.455Z,15.51
2019-03-22T05:03:23.046Z,15.33
2019-03-22T05:08:31.479Z,15.04
2019-03-22T05:13:41.296Z,14.34
2019-03-22T05:18:49.823Z,15.49
2019-03-22T05:23:58.507Z,15.08
2019-03-22T05:29:07.235Z,14.80
2019-03-22T05:34:16.990Z,14.86
2019-03-22T05:39:25.635Z,15.16
2019-03-22T05:44:35.006Z,14.56
2019-03-22T05:49:44.013Z,14.96
2019-03-22T05:54:54.198Z,15.14
2019-03-22T05:59:53.262Z,15.30
2019-03-22T06:05:02.394Z,15.11
2019-03-22T06:10:11.392Z,14.31
2019-03-22T06:15:20.533Z,14.19
2019-03-22T06:20:30.703Z,13.48
2019-03-22T06:25:29.894Z,12.64
2019-03-22T06:30:38.779Z,12.49
2019-03-22T06:35:47.786Z,12.32
2019-03-22T06:40:56.554Z,11.88
2019-03-22T06:46:06.012Z,10.91
2019-03-22T06:51:16.098Z,10.88
2019-03-22T06:56:17.907Z,10.62
2019-03-22T07:01:17.912Z,10.15
2019-03-22T07:06:28.117Z,9.87
2019-03-22T07:11:29.083Z,9.20
2019-03-22T07:16:29.451Z,9.58
2019-03-22T07:21:31.135Z,9.62
2019-03-22T07:26:31.262Z,9.58
2019-03-22T07:31:31.508Z,9.29
2019-03-22T07:36:31.756Z,8.83
2019-03-22T07:41:32.000Z,9.48
2019-03-22T07:46:32.009Z,9.47
2019-03-22T07:51:42.218Z,9.49
2019-03-22T07:56:42.219Z,8.94
2019-03-22T08:01:52.426Z,8.98
2019-03-22T08:06:53.392Z,8.07
2019-03-22T08:11:53.401Z,8.08
2019-03-22T08:17:03.486Z,8.00
2019-03-22T08:22:03.613Z,8.10
2019-03-22T08:27:03.290Z,8.13
2019-03-22T08:32:12.985Z,7.62
2019-03-22T08:37:21.928Z,7.54
2019-03-22T08:42:31.357Z,7.14
2019-03-22T08:47:40.043Z,6.61
2019-03-22T08:52:49.370Z,6.95
2019-03-22T08:57:58.739Z,6.99
2019-03-22T09:03:07.865Z,7.19
2019-03-22T09:08:16.554Z,7.62
2019-03-22T09:13:24.727Z,7.46
2019-03-22T09:18:33.456Z,7.30
2019-03-22T09:23:42.692Z,7.28
2019-03-22T09:28:51.982Z,7.25
2019-03-22T09:34:00.943Z,7.07
2019-03-22T09:39:10.431Z,7.50
2019-03-22T09:44:19.590Z,6.95
2019-03-22T09:49:28.794Z,6.58
2019-03-22T09:54:38.210Z,6.39
2019-03-22T09:59:46.937Z,6.53
2019-03-22T10:04:55.609Z,6.32
2019-03-22T10:10:04.134Z,6.34
2019-03-22T10:15:12.674Z,6.24
2019-03-22T10:20:21.197Z,6.58
2019-03-22T10:25:29.814Z,6.03
2019-03-22T10:30:38.547Z,6.34
2019-03-22T10:35:47.266Z,6.23
2019-03-22T10:40:55.900Z,5.74
2019-03-22T10:46:07.865Z,5.79
2019-03-22T10:51:13.667Z,6.10
2019-03-22T10:56:24.823Z,6.29
2019-03-22T11:01:31.904Z,6.31
2019-03-22T11:06:40.596Z,6.16
2019-03-22T11:11:50.051Z,6.19
2019-03-22T11:16:58.586Z,6.02
2019-03-22T11:22:07.804Z,5.92
2019-03-22T11:27:16.479Z,5.72
2019-03-22T11:32:25.248Z,6.01
2019-03-22T11:37:33.651Z,5.42
2019-03-22T11:42:42.174Z,5.84
2019-03-22T11:47:50.435Z,5.30
2019-03-22T11:52:59.079Z,5.43
2019-03-22T11:58:08.471Z,4.46
2019-03-22T12:03:17.960Z,4.02
2019-03-22T12:08:26.858Z,3.88
2019-03-22T12:13:36.695Z,3.25
2019-03-22T12:18:46.068Z,3.93
2019-03-22T12:23:55.306Z,3.35
2019-03-22T12:29:04.316Z,4.06
2019-03-22T12:34:13.557Z,4.78
2019-03-22T12:39:22.447Z,4.30
2019-03-22T12:44:31.692Z,3.66
2019-03-22T12:49:40.823Z,3.65
2019-03-22T12:54:49.947Z,3.33
2019-03-22T12:59:59.284Z,3.18
2019-03-22T13:05:08.650Z,3.31
2019-03-22T13:10:18.857Z,3.39
2019-03-22T13:15:18.769Z,3.50
2019-03-22T13:20:29.910Z,3.46
2019-03-22T13:25:30.159Z,3.24
2019-03-22T13:30:30.166Z,3.36
2019-03-22T13:35:41.211Z,3.39
2019-03-22T13:40:41.576Z,3.00
2019-03-22T13:45:41.583Z,2.79
2019-03-22T13:50:51.550Z,2.84
2019-03-22T13:56:02.358Z,2.59
2019-03-22T14:01:02.602Z,2.51
2019-03-22T14:06:03.332Z,2.64
2019-03-22T14:11:03.696Z,2.40
2019-03-22T14:16:03.821Z,2.50
2019-03-22T14:21:04.079Z,2.48
2019-03-22T14:26:04.075Z,2.42
2019-03-22T14:31:14.307Z,2.33
2019-03-22T14:36:14.414Z,2.38
2019-03-22T14:41:21.375Z,2.48
2019-03-22T14:46:27.507Z,2.35
2019-03-22T14:51:26.308Z,2.17
2019-03-22T14:56:37.477Z,2.21
2019-03-22T15:01:37.001Z,2.26
2019-03-22T15:06:45.576Z,2.21
2019-03-22T15:11:54.053Z,2.00
2019-03-22T15:17:03.594Z,2.03
2019-03-22T15:22:12.353Z,3.71
2019-03-22T15:27:23.593Z,2.67
2019-03-22T15:32:22.920Z,1.94
2019-03-22T15:37:32.789Z,1.89
2019-03-22T15:42:41.532Z,1.79
2019-03-22T15:47:50.416Z,2.26
2019-03-22T15:53:00.021Z,1.74
2019-03-22T15:58:08.993Z,1.72
2019-03-22T16:03:17.685Z,1.75
2019-03-22T16:08:26.409Z,1.74
2019-03-22T16:13:34.987Z,1.85
2019-03-22T16:18:43.851Z,1.83
2019-03-22T16:23:52.611Z,1.60
2019-03-22T16:29:02.103Z,1.81
2019-03-22T16:34:10.977Z,1.81
2019-03-22T16:39:20.833Z,1.97
2019-03-22T16:44:29.706Z,1.73
2019-03-22T16:49:38.698Z,1.98
2019-03-22T16:54:47.852Z,1.98
2019-03-22T16:59:56.514Z,1.85
2019-03-22T17:05:06.256Z,1.80
2019-03-22T17:10:15.723Z,1.73
2019-03-22T17:15:24.212Z,1.81
2019-03-22T17:20:33.009Z,1.69
2019-03-22T17:25:42.588Z,1.88
2019-03-22T17:30:52.675Z,1.85
2019-03-22T17:36:01.252Z,1.86
2019-03-22T17:41:11.102Z,1.78
2019-03-22T17:46:19.961Z,1.99
2019-03-22T17:51:30.234Z,1.90
2019-03-22T17:56:37.130Z,2.02
2019-03-22T18:01:45.924Z,2.39
2019-03-22T18:06:54.996Z,2.19
2019-03-22T18:12:05.350Z,2.62
2019-03-22T18:17:05.234Z,4.05
2019-03-22T18:22:15.206Z,2.22
2019-03-22T18:27:24.450Z,2.84
2019-03-22T18:32:33.580Z,3.69
2019-03-22T18:37:42.824Z,3.46
2019-03-22T18:42:52.193Z,3.46
2019-03-22T18:48:01.528Z,5.24
2019-03-22T18:53:10.903Z,6.45
2019-03-22T18:58:21.131Z,4.39
2019-03-22T19:03:20.537Z,3.76
2019-03-22T19:08:29.543Z,3.21
2019-03-22T19:13:38.523Z,5.64
2019-03-22T19:18:47.557Z,5.80
2019-03-22T19:23:58.216Z,5.29
2019-03-22T19:28:58.583Z,4.74
2019-03-22T19:34:03.267Z,4.54
2019-03-22T19:39:04.354Z,47.34
2019-03-22T19:44:04.479Z,6.32
2019-03-22T19:49:04.606Z,2.83
2019-03-22T19:54:05.452Z,3.09
2019-03-22T19:59:05.459Z,2.77
2019-03-22T20:04:15.444Z,2.77
2019-03-22T20:09:25.398Z,2.70
2019-03-22T20:14:35.959Z,5.33
2019-03-22T20:19:36.833Z,8.09
2019-03-22T20:24:37.052Z,13.35
2019-03-22T20:29:37.417Z,8.16
2019-03-22T20:34:37.907Z,9.83
2019-03-22T20:39:38.030Z,8.89
2019-03-22T20:44:38.277Z,8.51
2019-03-22T20:49:38.886Z,7.73
2019-03-22T20:54:41.200Z,6.83
2019-03-22T21:00:05.832Z,6.33
2019-03-22T21:04:50.190Z,6.55
2019-03-22T21:09:53.446Z,6.13
2019-03-22T21:14:53.125Z,5.58
2019-03-22T21:20:01.897Z,29.15
2019-03-22T21:25:12.288Z,5.06
2019-03-22T21:30:11.019Z,4.59
2019-03-22T21:35:23.022Z,4.89
2019-03-22T21:40:22.908Z,5.14
2019-03-22T21:45:22.166Z,5.07
2019-03-22T21:50:33.084Z,4.65
2019-03-22T21:55:32.127Z,4.43
2019-03-22T22:00:40.294Z,4.45
2019-03-22T22:05:48.582Z,4.53
2019-03-22T22:11:00.027Z,4.93
2019-03-22T22:16:03.743Z,7.68
2019-03-22T22:21:11.786Z,4.21
2019-03-22T22:26:23.255Z,6.49
2019-03-22T22:31:21.132Z,6.89
2019-03-22T22:36:29.546Z,6.09
2019-03-22T22:41:39.291Z,6.70
2019-03-22T22:46:47.552Z,5.54
2019-03-22T22:51:56.317Z,5.36
2019-03-22T22:57:04.244Z,5.29
2019-03-22T23:02:12.317Z,5.10
2019-03-22T23:07:20.339Z,5.18
2019-03-22T23:12:28.557Z,4.14
2019-03-22T23:17:36.963Z,4.48
2019-03-22T23:22:45.557Z,5.30
2019-03-22T23:27:54.501Z,5.45
2019-03-22T23:33:02.880Z,5.38
2019-03-22T23:38:11.619Z,5.19
2019-03-22T23:43:19.788Z,5.20
2019-03-22T23:48:29.689Z,5.09
2019-03-22T23:53:38.160Z,4.77
2019-03-22T23:58:46.562Z,4.96
